sensor_id;sensor_type;location;lat;lon;timestamp;P1;P2;P0
82823;PMS5003;72575;46.834;-71.234;2024-03-23T00:54:46;12.29;10.76;6.76
82823;PMS5003;72575;46.834;-71.234;2024-03-23T00:57:11;7.62;7.62;4.86
82823;PMS5003;72575;46.834;-71.234;2024-03-23T00:59:36;6.14;6.14;3.14
82823;PMS5003;72575;46.834;-71.234;2024-03-23T01:02:03;8.19;7.62;4.24
82823;PMS5003;72575;46.834;-71.234;2024-03-23T01:04:28;7.86;6.52;3.1
82823;PMS5003;72575;46.834;-71.234;2024-03-23T01:06:55;6.1;4.67;2
82823;PMS5003;72575;46.834;-71.234;2024-03-23T01:09:19;8.14;6.95;4.86
82823;PMS5003;72575;46.834;-71.234;2024-03-23T01:11:42;8.05;6.1;4
82823;PMS5003;72575;46.834;-71.234;2024-03-23T01:14:08;8.05;6.9;4.19
82823;PMS5003;72575;46.834;-71.234;2024-03-23T01:16:35;6.77;6.77;3.55
82823;PMS5003;72575;46.834;-71.234;2024-03-23T01:19:02;7.24;6.29;2.86
82823;PMS5003;72575;46.834;-71.234;2024-03-23T01:21:26;13.48;9.95;4.62
82823;PMS5003;72575;46.834;-71.234;2024-03-23T01:23:53;12.57;12.29;8.71
82823;PMS5003;72575;46.834;-71.234;2024-03-23T01:26:17;8.57;6.67;4
82823;PMS5003;72575;46.834;-71.234;2024-03-23T01:28:41;13.67;11.05;6.95
82823;PMS5003;72575;46.834;-71.234;2024-03-23T01:31:08;18.11;16.32;6.74
82823;PMS5003;72575;46.834;-71.234;2024-03-23T01:33:35;26.62;25.48;9.33
82823;PMS5003;72575;46.834;-71.234;2024-03-23T01:35:59;18.81;15.67;12
82823;PMS5003;72575;46.834;-71.234;2024-03-23T01:38:23;18.3;16.2;7.65
82823;PMS5003;72575;46.834;-71.234;2024-03-23T01:40:50;10.38;9.1;4.76
82823;PMS5003;72575;46.834;-71.234;2024-03-23T01:43:16;17.52;13.24;7.62
82823;PMS5003;72575;46.834;-71.234;2024-03-23T01:45:40;13;11.24;6.33
82823;PMS5003;72575;46.834;-71.234;2024-03-23T01:48:05;46.16;40.26;17.26
82823;PMS5003;72575;46.834;-71.234;2024-03-23T01:50:32;70;54.55;27.8
82823;PMS5003;72575;46.834;-71.234;2024-03-23T01:52:57;65.15;53.65;27.6
82823;PMS5003;72575;46.834;-71.234;2024-03-23T01:55:21;54.56;43.78;21
82823;PMS5003;72575;46.834;-71.234;2024-03-23T01:57:48;74.5;55.11;26.28
82823;PMS5003;72575;46.834;-71.234;2024-03-23T02:00:14;73.05;57.16;29.05
82823;PMS5003;72575;46.834;-71.234;2024-03-23T02:02:41;88.76;68.81;38.52
82823;PMS5003;72575;46.834;-71.234;2024-03-23T02:05:05;85.81;67.24;41.1
82823;PMS5003;72575;46.834;-71.234;2024-03-23T02:07:29;77.43;58.29;33.67
82823;PMS5003;72575;46.834;-71.234;2024-03-23T02:09:56;79.75;64.2;37.1
82823;PMS5003;72575;46.834;-71.234;2024-03-23T02:12:20;74.52;54.81;32.24
82823;PMS5003;72575;46.834;-71.234;2024-03-23T02:14:45;60.89;51.89;29.58
82823;PMS5003;72575;46.834;-71.234;2024-03-23T02:17:12;34.3;31.95;18.3
82823;PMS5003;72575;46.834;-71.234;2024-03-23T02:19:36;47.4;42.45;20.75
82823;PMS5003;72575;46.834;-71.234;2024-03-23T02:22:00;25.05;22.48;13.14
82823;PMS5003;72575;46.834;-71.234;2024-03-23T02:24:29;37.05;34.5;22.09
82823;PMS5003;72575;46.834;-71.234;2024-03-23T02:26:53;23.52;22.57;11.71
82823;PMS5003;72575;46.834;-71.234;2024-03-23T02:29:17;25;22.05;12.76
82823;PMS5003;72575;46.834;-71.234;2024-03-23T02:31:43;24.94;23.78;10.89
82823;PMS5003;72575;46.834;-71.234;2024-03-23T02:34:09;13.57;12;6.76
82823;PMS5003;72575;46.834;-71.234;2024-03-23T02:36:33;12.1;10.43;6.9
82823;PMS5003;72575;46.834;-71.234;2024-03-23T02:38:59;14.9;11.05;5.33
82823;PMS5003;72575;46.834;-71.234;2024-03-23T02:41:25;10.68;9.59;5.36
82823;PMS5003;72575;46.834;-71.234;2024-03-23T02:43:50;17.72;14.83;5.72
82823;PMS5003;72575;46.834;-71.234;2024-03-23T02:46:16;11.78;10.89;5.39
82823;PMS5003;72575;46.834;-71.234;2024-03-23T02:48:40;6.67;4.95;2.81
82823;PMS5003;72575;46.834;-71.234;2024-03-23T02:51:07;7.48;6.24;4
82823;PMS5003;72575;46.834;-71.234;2024-03-23T02:53:31;3.81;3.1;1
82823;PMS5003;72575;46.834;-71.234;2024-03-23T02:55:58;5.05;4.43;3
82823;PMS5003;72575;46.834;-71.234;2024-03-23T02:58:22;4.09;3.91;3
82823;PMS5003;72575;46.834;-71.234;2024-03-23T03:00:49;3.38;3.38;2.33
82823;PMS5003;72575;46.834;-71.234;2024-03-23T03:03:14;7.76;5.33;2.81
82823;PMS5003;72575;46.834;-71.234;2024-03-23T03:05:38;3.05;1.76;0.67
82823;PMS5003;72575;46.834;-71.234;2024-03-23T03:08:05;5.05;4;3.1
82823;PMS5003;72575;46.834;-71.234;2024-03-23T03:10:29;4;4;3
82823;PMS5003;72575;46.834;-71.234;2024-03-23T03:12:54;6.1;6.1;3.81
82823;PMS5003;72575;46.834;-71.234;2024-03-23T03:15:21;7.76;6.9;2.19
82823;PMS5003;72575;46.834;-71.234;2024-03-23T03:17:45;6.71;5.81;2.29
82823;PMS5003;72575;46.834;-71.234;2024-03-23T03:20:13;5.29;5.29;2.62
82823;PMS5003;72575;46.834;-71.234;2024-03-23T03:22:38;8.57;6.57;2.81
82823;PMS5003;72575;46.834;-71.234;2024-03-23T03:25:02;117.5;92.45;43.55
82823;PMS5003;72575;46.834;-71.234;2024-03-23T03:27:29;13.1;9.38;5.52
82823;PMS5003;72575;46.834;-71.234;2024-03-23T03:29:53;55.37;47.37;25.63
82823;PMS5003;72575;46.834;-71.234;2024-03-23T03:32:18;57.6;45.85;21.3
82823;PMS5003;72575;46.834;-71.234;2024-03-23T03:34:45;65.25;53.3;27
82823;PMS5003;72575;46.834;-71.234;2024-03-23T03:37:09;61.75;49.85;25.25
82823;PMS5003;72575;46.834;-71.234;2024-03-23T03:39:36;9.33;7.1;2.62
82823;PMS5003;72575;46.834;-71.234;2024-03-23T03:42:00;22.71;12;6.86
82823;PMS5003;72575;46.834;-71.234;2024-03-23T03:44:25;14;12.62;6.62
82823;PMS5003;72575;46.834;-71.234;2024-03-23T03:46:52;1;1;0.9
82823;PMS5003;72575;46.834;-71.234;2024-03-23T03:49:16;4.05;3.23;0.91
82823;PMS5003;72575;46.834;-71.234;2024-03-23T03:51:43;4.38;3;1
82823;PMS5003;72575;46.834;-71.234;2024-03-23T03:54:07;4.57;3.1;1
82823;PMS5003;72575;46.834;-71.234;2024-03-23T03:56:34;3.62;3;1.67
82823;PMS5003;72575;46.834;-71.234;2024-03-23T03:58:58;4.71;4.71;2.05
82823;PMS5003;72575;46.834;-71.234;2024-03-23T04:01:23;5;4.43;1.19
82823;PMS5003;72575;46.834;-71.234;2024-03-23T04:03:50;2.05;1.19;0
82823;PMS5003;72575;46.834;-71.234;2024-03-23T04:06:18;0;0;0
82823;PMS5003;72575;46.834;-71.234;2024-03-23T04:08:39;3;3;1
82823;PMS5003;72575;46.834;-71.234;2024-03-23T04:11:06;4.14;3.95;3
82823;PMS5003;72575;46.834;-71.234;2024-03-23T04:13:31;1.95;1.76;0.24
82823;PMS5003;72575;46.834;-71.234;2024-03-23T04:15:58;4.48;3.67;0.9
82823;PMS5003;72575;46.834;-71.234;2024-03-23T04:18:22;4.43;3.67;3.38
82823;PMS5003;72575;46.834;-71.234;2024-03-23T04:20:47;9.52;3.76;1.48
82823;PMS5003;72575;46.834;-71.234;2024-03-23T04:23:14;2.86;2;1
82823;PMS5003;72575;46.834;-71.234;2024-03-23T04:25:39;0.76;0.76;0.67
82823;PMS5003;72575;46.834;-71.234;2024-03-23T04:28:03;3.19;2.81;0.95
82823;PMS5003;72575;46.834;-71.234;2024-03-23T04:30:29;3.67;3.67;2.05
82823;PMS5003;72575;46.834;-71.234;2024-03-23T04:32:55;2.62;2.62;0.81
82823;PMS5003;72575;46.834;-71.234;2024-03-23T04:35:21;2.05;1.76;0.48
82823;PMS5003;72575;46.834;-71.234;2024-03-23T04:37:44;6.1;4.48;1.14
82823;PMS5003;72575;46.834;-71.234;2024-03-23T04:40:11;3.05;3.05;1.55
82823;PMS5003;72575;46.834;-71.234;2024-03-23T04:42:35;1.95;1;0.81
82823;PMS5003;72575;46.834;-71.234;2024-03-23T04:45:02;4.38;4;3.05
82823;PMS5003;72575;46.834;-71.234;2024-03-23T04:47:27;2.71;2.57;1.38
82823;PMS5003;72575;46.834;-71.234;2024-03-23T04:49:51;5.14;3.71;1
82823;PMS5003;72575;46.834;-71.234;2024-03-23T04:52:17;4.1;4.1;2.05
82823;PMS5003;72575;46.834;-71.234;2024-03-23T04:54:44;7.05;5.1;3.29
82823;PMS5003;72575;46.834;-71.234;2024-03-23T04:57:09;5;4.27;3
82823;PMS5003;72575;46.834;-71.234;2024-03-23T04:59:36;7.43;7.43;3.9
82823;PMS5003;72575;46.834;-71.234;2024-03-23T05:02:00;4.19;3.48;2.52
82823;PMS5003;72575;46.834;-71.234;2024-03-23T05:04:24;4.57;4.48;1.95
82823;PMS5003;72575;46.834;-71.234;2024-03-23T05:06:51;5.81;4.43;2.33
82823;PMS5003;72575;46.834;-71.234;2024-03-23T05:09:15;11.86;6.57;3.38
82823;PMS5003;72575;46.834;-71.234;2024-03-23T05:11:42;11.1;8.65;3.9
82823;PMS5003;72575;46.834;-71.234;2024-03-23T05:14:09;8.64;5.27;3
82823;PMS5003;72575;46.834;-71.234;2024-03-23T05:16:36;7.14;6.38;3
82823;PMS5003;72575;46.834;-71.234;2024-03-23T05:19:00;9.86;8.81;3.24
82823;PMS5003;72575;46.834;-71.234;2024-03-23T05:21:24;6.38;6.38;1.67
82823;PMS5003;72575;46.834;-71.234;2024-03-23T05:23:53;4.43;3;2.81
82823;PMS5003;72575;46.834;-71.234;2024-03-23T05:26:17;7.19;6.33;3
82823;PMS5003;72575;46.834;-71.234;2024-03-23T05:28:53;7.73;7.23;4
82823;PMS5003;72575;46.834;-71.234;2024-03-23T05:31:22;7.09;5.95;3.09
82823;PMS5003;72575;46.834;-71.234;2024-03-23T05:33:44;10.29;8.33;3.14
82823;PMS5003;72575;46.834;-71.234;2024-03-23T05:36:09;4.14;3.67;1.19
82823;PMS5003;72575;46.834;-71.234;2024-03-23T05:38:35;4.71;4.1;3
82823;PMS5003;72575;46.834;-71.234;2024-03-23T05:41:01;6.67;5.24;3.33
82823;PMS5003;72575;46.834;-71.234;2024-03-23T05:43:25;7.33;5.86;2.86
82823;PMS5003;72575;46.834;-71.234;2024-03-23T05:45:54;9.59;5.36;3
82823;PMS5003;72575;46.834;-71.234;2024-03-23T05:48:18;6.9;5.52;1.95
82823;PMS5003;72575;46.834;-71.234;2024-03-23T05:50:42;8.86;7.48;4.43
82823;PMS5003;72575;46.834;-71.234;2024-03-23T05:53:06;4.76;4;2.9
82823;PMS5003;72575;46.834;-71.234;2024-03-23T05:55:34;45.06;40.61;17
82823;PMS5003;72575;46.834;-71.234;2024-03-23T05:57:58;15.86;10.67;6.71
82823;PMS5003;72575;46.834;-71.234;2024-03-23T06:00:25;42.15;33.75;15.75
82823;PMS5003;72575;46.834;-71.234;2024-03-23T06:02:49;40.9;33.95;17.48
82823;PMS5003;72575;46.834;-71.234;2024-03-23T06:05:14;28.76;25.1;12.76
82823;PMS5003;72575;46.834;-71.234;2024-03-23T06:07:39;14.52;13.24;6.24
82823;PMS5003;72575;46.834;-71.234;2024-03-23T06:10:07;8.62;7.48;4.67
82823;PMS5003;72575;46.834;-71.234;2024-03-23T06:12:31;6.59;6.59;4.77
82823;PMS5003;72575;46.834;-71.234;2024-03-23T06:14:58;11.29;11;5.33
82823;PMS5003;72575;46.834;-71.234;2024-03-23T06:17:23;7.05;6.14;2.57
82823;PMS5003;72575;46.834;-71.234;2024-03-23T06:19:48;26.57;21.67;11.43
82823;PMS5003;72575;46.834;-71.234;2024-03-23T06:22:12;78.71;62.57;36.05
82823;PMS5003;72575;46.834;-71.234;2024-03-23T06:24:39;10.57;9.52;6.48
82823;PMS5003;72575;46.834;-71.234;2024-03-23T06:27:03;16;15.62;9.14
82823;PMS5003;72575;46.834;-71.234;2024-03-23T06:29:30;22.43;15.81;9.67
82823;PMS5003;72575;46.834;-71.234;2024-03-23T06:31:54;18.05;16.48;9.52
82823;PMS5003;72575;46.834;-71.234;2024-03-23T06:34:19;27.48;20.33;10.38
82823;PMS5003;72575;46.834;-71.234;2024-03-23T06:36:46;13.09;12.91;6
82823;PMS5003;72575;46.834;-71.234;2024-03-23T06:39:10;8.52;6.38;3.1
82823;PMS5003;72575;46.834;-71.234;2024-03-23T06:41:37;4.71;4.43;1.48
82823;PMS5003;72575;46.834;-71.234;2024-03-23T06:44:01;5.05;5.05;3.81
82823;PMS5003;72575;46.834;-71.234;2024-03-23T06:46:28;7.95;7.76;3.38
82823;PMS5003;72575;46.834;-71.234;2024-03-23T06:48:52;9.48;8.43;3.67
82823;PMS5003;72575;46.834;-71.234;2024-03-23T06:51:18;4.86;4.86;2.05
82823;PMS5003;72575;46.834;-71.234;2024-03-23T06:53:45;3.36;3;0.91
82823;PMS5003;72575;46.834;-71.234;2024-03-23T06:56:08;3;3;1
82823;PMS5003;72575;46.834;-71.234;2024-03-23T06:58:35;1.95;0.81;0.52
82823;PMS5003;72575;46.834;-71.234;2024-03-23T07:00:59;2.62;2.62;0.76
82823;PMS5003;72575;46.834;-71.234;2024-03-23T07:03:25;3;1.76;0
82823;PMS5003;72575;46.834;-71.234;2024-03-23T07:05:49;0.76;0;0
82823;PMS5003;72575;46.834;-71.234;2024-03-23T07:08:15;2.52;0.76;0.1
82823;PMS5003;72575;46.834;-71.234;2024-03-23T07:10:42;1;1;0
82823;PMS5003;72575;46.834;-71.234;2024-03-23T07:13:06;1;1;1
82823;PMS5003;72575;46.834;-71.234;2024-03-23T07:15:34;1.19;1.19;0.67
82823;PMS5003;72575;46.834;-71.234;2024-03-23T07:17:59;2.05;1.76;0
82823;PMS5003;72575;46.834;-71.234;2024-03-23T07:20:23;2.62;2.62;0.95
82823;PMS5003;72575;46.834;-71.234;2024-03-23T07:22:48;1.1;1.1;0
82823;PMS5003;72575;46.834;-71.234;2024-03-23T07:25:13;1.76;1;0
82823;PMS5003;72575;46.834;-71.234;2024-03-23T07:27:40;2.64;2.64;0
82823;PMS5003;72575;46.834;-71.234;2024-03-23T07:30:06;1.14;1.14;0.24
82823;PMS5003;72575;46.834;-71.234;2024-03-23T07:32:32;1.67;1.67;1
82823;PMS5003;72575;46.834;-71.234;2024-03-23T07:34:55;0.76;0.76;0.24
82823;PMS5003;72575;46.834;-71.234;2024-03-23T07:37:22;3.29;2.62;1
82823;PMS5003;72575;46.834;-71.234;2024-03-23T07:39:46;1.95;1;0.48
82823;PMS5003;72575;46.834;-71.234;2024-03-23T07:42:13;0.9;0.9;0.24
82823;PMS5003;72575;46.834;-71.234;2024-03-23T07:44:38;1.14;1.14;0.14
82823;PMS5003;72575;46.834;-71.234;2024-03-23T07:47:05;3;0.48;0
82823;PMS5003;72575;46.834;-71.234;2024-03-23T07:49:29;3.19;3;1
82823;PMS5003;72575;46.834;-71.234;2024-03-23T07:51:53;2.43;2.43;1.19
82823;PMS5003;72575;46.834;-71.234;2024-03-23T07:54:20;2.33;2.33;0.38
82823;PMS5003;72575;46.834;-71.234;2024-03-23T07:56:44;1;1;0.1
82823;PMS5003;72575;46.834;-71.234;2024-03-23T07:59:09;0.62;0.62;0
82823;PMS5003;72575;46.834;-71.234;2024-03-23T08:01:37;2.18;2.18;0.77
82823;PMS5003;72575;46.834;-71.234;2024-03-23T08:04:01;1.19;0.52;0
82823;PMS5003;72575;46.834;-71.234;2024-03-23T08:06:28;0.33;0;0
82823;PMS5003;72575;46.834;-71.234;2024-03-23T08:08:54;0.24;0.24;0
82823;PMS5003;72575;46.834;-71.234;2024-03-23T08:11:18;1;1;0
82823;PMS5003;72575;46.834;-71.234;2024-03-23T08:13:42;0.62;0.62;0.05
82823;PMS5003;72575;46.834;-71.234;2024-03-23T08:16:08;0.62;0.62;0
82823;PMS5003;72575;46.834;-71.234;2024-03-23T08:18:35;1.36;0.91;0
82823;PMS5003;72575;46.834;-71.234;2024-03-23T08:21:00;3;0.19;0
82823;PMS5003;72575;46.834;-71.234;2024-03-23T08:23:24;2.05;1;0.38
82823;PMS5003;72575;46.834;-71.234;2024-03-23T08:25:51;0.19;0;0
82823;PMS5003;72575;46.834;-71.234;2024-03-23T08:28:16;2;0.95;0.38
82823;PMS5003;72575;46.834;-71.234;2024-03-23T08:30:41;0.76;0.76;0
82823;PMS5003;72575;46.834;-71.234;2024-03-23T08:33:05;0.62;0.38;0
82823;PMS5003;72575;46.834;-71.234;2024-03-23T08:35:32;0.95;0.95;0
82823;PMS5003;72575;46.834;-71.234;2024-03-23T08:37:58;0.9;0.52;0
82823;PMS5003;72575;46.834;-71.234;2024-03-23T08:40:22;1;1;0
82823;PMS5003;72575;46.834;-71.234;2024-03-23T08:42:47;0.05;0.05;0
82823;PMS5003;72575;46.834;-71.234;2024-03-23T08:45:14;0;0;0
82823;PMS5003;72575;46.834;-71.234;2024-03-23T08:47:38;1.76;1.67;0.38
82823;PMS5003;72575;46.834;-71.234;2024-03-23T08:50:06;2.81;0.95;0.1
82823;PMS5003;72575;46.834;-71.234;2024-03-23T08:52:30;0.73;0.32;0
82823;PMS5003;72575;46.834;-71.234;2024-03-23T08:54:55;0;0;0
82823;PMS5003;72575;46.834;-71.234;2024-03-23T08:57:19;0.62;0.62;0
82823;PMS5003;72575;46.834;-71.234;2024-03-23T08:59:47;3.24;3.1;0.48
82823;PMS5003;72575;46.834;-71.234;2024-03-23T09:26:13;1;0.38;0
82823;PMS5003;72575;46.834;-71.234;2024-03-23T09:26:24;0.5;0.36;0
82823;PMS5003;72575;46.834;-71.234;2024-03-23T09:26:35;0.73;0.45;0
82823;PMS5003;72575;46.834;-71.234;2024-03-23T09:26:43;0.23;0.14;0
82823;PMS5003;72575;46.834;-71.234;2024-03-23T09:26:51;0.86;0.86;0
82823;PMS5003;72575;46.834;-71.234;2024-03-23T09:26:55;1;1;0
82823;PMS5003;72575;46.834;-71.234;2024-03-23T09:27:03;0.68;0.68;0
82823;PMS5003;72575;46.834;-71.234;2024-03-23T09:27:13;0.27;0;0
82823;PMS5003;72575;46.834;-71.234;2024-03-23T09:29:38;0.09;0.09;0
82823;PMS5003;72575;46.834;-71.234;2024-03-23T09:32:01;0.76;0.76;0
82823;PMS5003;72575;46.834;-71.234;2024-03-23T09:34:27;0;0;0
82823;PMS5003;72575;46.834;-71.234;2024-03-23T09:36:55;0;0;0
82823;PMS5003;72575;46.834;-71.234;2024-03-23T09:39:18;0.33;0.19;0
82823;PMS5003;72575;46.834;-71.234;2024-03-23T09:41:46;0;0;0
82823;PMS5003;72575;46.834;-71.234;2024-03-23T09:44:11;0.1;0.1;0
82823;PMS5003;72575;46.834;-71.234;2024-03-23T09:46:35;0;0;0
82823;PMS5003;72575;46.834;-71.234;2024-03-23T09:49:00;0;0;0
82823;PMS5003;72575;46.834;-71.234;2024-03-23T09:51:27;0;0;0
82823;PMS5003;72575;46.834;-71.234;2024-03-23T09:53:51;0.38;0;0
82823;PMS5003;72575;46.834;-71.234;2024-03-23T09:56:16;0.48;0.48;0
82823;PMS5003;72575;46.834;-71.234;2024-03-23T09:58:43;1.95;1.95;1.23
82823;PMS5003;72575;46.834;-71.234;2024-03-23T10:01:09;2.24;0.19;0
82823;PMS5003;72575;46.834;-71.234;2024-03-23T10:03:41;0.62;0.62;0
82823;PMS5003;72575;46.834;-71.234;2024-03-23T10:06:00;1;1;0
82823;PMS5003;72575;46.834;-71.234;2024-03-23T10:08:24;1.95;1;0.9
82823;PMS5003;72575;46.834;-71.234;2024-03-23T10:10:49;0.33;0.33;0.05
82823;PMS5003;72575;46.834;-71.234;2024-03-23T10:13:23;0.48;0.1;0
82823;PMS5003;72575;46.834;-71.234;2024-03-23T10:15:40;2.5;0.05;0
82823;PMS5003;72575;46.834;-71.234;2024-03-23T10:18:16;0.33;0.33;0
82823;PMS5003;72575;46.834;-71.234;2024-03-23T10:20:32;1;1;0.9
82823;PMS5003;72575;46.834;-71.234;2024-03-23T10:22:56;0.67;0.67;0
82823;PMS5003;72575;46.834;-71.234;2024-03-23T10:25:22;1;1;1
82823;PMS5003;72575;46.834;-71.234;2024-03-23T10:27:55;2.05;1;0
82823;PMS5003;72575;46.834;-71.234;2024-03-23T10:30:12;3.05;0;0
82823;PMS5003;72575;46.834;-71.234;2024-03-23T10:32:37;1.45;1.45;0.27
82823;PMS5003;72575;46.834;-71.234;2024-03-23T10:35:20;9.19;6.05;3.1
82823;PMS5003;72575;46.834;-71.234;2024-03-23T10:37:30;4;2.29;1
82823;PMS5003;72575;46.834;-71.234;2024-03-23T10:39:55;5.62;3.81;1
82823;PMS5003;72575;46.834;-71.234;2024-03-23T10:42:19;0;0;0
82823;PMS5003;72575;46.834;-71.234;2024-03-23T10:44:46;2.05;1;0
82823;PMS5003;72575;46.834;-71.234;2024-03-23T10:47:11;3.48;2.81;0
82823;PMS5003;72575;46.834;-71.234;2024-03-23T10:49:36;1.82;1.82;0.95
82823;PMS5003;72575;46.834;-71.234;2024-03-23T10:52:03;2.86;0.52;0
82823;PMS5003;72575;46.834;-71.234;2024-03-23T10:54:26;3;3;1
82823;PMS5003;72575;46.834;-71.234;2024-03-23T10:56:55;2.33;0.95;0.38
82823;PMS5003;72575;46.834;-71.234;2024-03-23T10:59:17;1.38;1;0
82823;PMS5003;72575;46.834;-71.234;2024-03-23T11:01:53;3.43;1;0
82823;PMS5003;72575;46.834;-71.234;2024-03-23T11:04:08;3;1.38;1
82823;PMS5003;72575;46.834;-71.234;2024-03-23T11:06:40;0;0;0
82823;PMS5003;72575;46.834;-71.234;2024-03-23T11:08:58;0.52;0.52;0.38
82823;PMS5003;72575;46.834;-71.234;2024-03-23T11:11:24;0.81;0.81;0.38
82823;PMS5003;72575;46.834;-71.234;2024-03-23T11:13:52;0.52;0.52;0.24
82823;PMS5003;72575;46.834;-71.234;2024-03-23T11:16:17;3;0;0
82823;PMS5003;72575;46.834;-71.234;2024-03-23T11:18:42;1.19;1.19;0.52
82823;PMS5003;72575;46.834;-71.234;2024-03-23T11:21:07;3.38;2.05;0
82823;PMS5003;72575;46.834;-71.234;2024-03-23T11:23:33;0.77;0.77;0
82823;PMS5003;72575;46.834;-71.234;2024-03-23T11:25:58;2.57;1.1;0.62
82823;PMS5003;72575;46.834;-71.234;2024-03-23T11:28:22;1;1;0.52
82823;PMS5003;72575;46.834;-71.234;2024-03-23T11:30:47;0.19;0.19;0
82823;PMS5003;72575;46.834;-71.234;2024-03-23T11:33:12;2.62;1.86;1.76
82823;PMS5003;72575;46.834;-71.234;2024-03-23T11:35:37;5.05;2.71;0.95
82823;PMS5003;72575;46.834;-71.234;2024-03-23T11:38:10;0.81;0.81;0
82823;PMS5003;72575;46.834;-71.234;2024-03-23T11:40:29;1;1;0
82823;PMS5003;72575;46.834;-71.234;2024-03-23T11:42:56;1.95;1.48;1
82823;PMS5003;72575;46.834;-71.234;2024-03-23T11:45:20;0;0;0
82823;PMS5003;72575;46.834;-71.234;2024-03-23T11:47:47;1;0;0
82823;PMS5003;72575;46.834;-71.234;2024-03-23T11:50:19;2.71;2.71;1.71
82823;PMS5003;72575;46.834;-71.234;2024-03-23T11:52:36;3;2.33;0.38
82823;PMS5003;72575;46.834;-71.234;2024-03-23T11:55:03;0;0;0
82823;PMS5003;72575;46.834;-71.234;2024-03-23T11:57:28;1.55;1.55;0
82823;PMS5003;72575;46.834;-71.234;2024-03-23T11:59:53;1.81;1.14;0.24
82823;PMS5003;72575;46.834;-71.234;2024-03-23T12:02:19;2.14;2.05;0.38
82823;PMS5003;72575;46.834;-71.234;2024-03-23T12:04:44;1.48;1.48;0.95
82823;PMS5003;72575;46.834;-71.234;2024-03-23T12:07:13;3.24;2.9;1.48
82823;PMS5003;72575;46.834;-71.234;2024-03-23T12:09:34;2.62;2.62;1
82823;PMS5003;72575;46.834;-71.234;2024-03-23T12:11:59;2.81;2.81;1
82823;PMS5003;72575;46.834;-71.234;2024-03-23T12:14:26;3.14;1.45;0.14
82823;PMS5003;72575;46.834;-71.234;2024-03-23T12:16:52;1.19;1.19;1
82823;PMS5003;72575;46.834;-71.234;2024-03-23T12:19:17;2.9;2.05;1
82823;PMS5003;72575;46.834;-71.234;2024-03-23T12:21:41;1.38;1;0.62
82823;PMS5003;72575;46.834;-71.234;2024-03-23T12:24:07;2.33;2.33;1
82823;PMS5003;72575;46.834;-71.234;2024-03-23T12:26:31;2.14;2.14;1
82823;PMS5003;72575;46.834;-71.234;2024-03-23T12:29:10;2;2;1.24
82823;PMS5003;72575;46.834;-71.234;2024-03-23T12:31:34;2.09;2.09;1
82823;PMS5003;72575;46.834;-71.234;2024-03-23T12:33:58;3.86;3.24;1
82823;PMS5003;72575;46.834;-71.234;2024-03-23T12:36:26;2.52;2.52;1.48
82823;PMS5003;72575;46.834;-71.234;2024-03-23T12:38:50;3;1.76;1
82823;PMS5003;72575;46.834;-71.234;2024-03-23T12:41:14;2.81;2.81;0.48
82823;PMS5003;72575;46.834;-71.234;2024-03-23T12:43:41;5;4;1.19
82823;PMS5003;72575;46.834;-71.234;2024-03-23T12:46:06;7;5.36;0.91
82823;PMS5003;72575;46.834;-71.234;2024-03-23T12:48:32;3.67;3;2.33
82823;PMS5003;72575;46.834;-71.234;2024-03-23T12:50:56;2.62;2.62;0.9
82823;PMS5003;72575;46.834;-71.234;2024-03-23T12:53:24;3.1;3.1;1.38
82823;PMS5003;72575;46.834;-71.234;2024-03-23T12:55:46;1;1;0.38
82823;PMS5003;72575;46.834;-71.234;2024-03-23T12:58:12;3;3;1
82823;PMS5003;72575;46.834;-71.234;2024-03-23T13:00:39;2.33;2.33;1
82823;PMS5003;72575;46.834;-71.234;2024-03-23T13:03:03;3.27;3.27;1
82823;PMS5003;72575;46.834;-71.234;2024-03-23T13:05:28;3.62;2.81;1.1
82823;PMS5003;72575;46.834;-71.234;2024-03-23T13:07:56;3;2.62;0.67
82823;PMS5003;72575;46.834;-71.234;2024-03-23T13:10:21;0;0;0
82823;PMS5003;72575;46.834;-71.234;2024-03-23T13:12:45;1;1;0.67
82823;PMS5003;72575;46.834;-71.234;2024-03-23T13:15:12;2.52;2.52;0.24
82823;PMS5003;72575;46.834;-71.234;2024-03-23T13:17:36;1.19;1.19;0.1
82823;PMS5003;72575;46.834;-71.234;2024-03-23T13:20:04;1;1;0
82823;PMS5003;72575;46.834;-71.234;2024-03-23T13:22:28;0.33;0;0
82823;PMS5003;72575;46.834;-71.234;2024-03-23T13:24:52;1;1;0
82823;PMS5003;72575;46.834;-71.234;2024-03-23T13:27:19;0.52;0.52;0
82823;PMS5003;72575;46.834;-71.234;2024-03-23T13:29:43;0.76;0.1;0
82823;PMS5003;72575;46.834;-71.234;2024-03-23T13:32:10;3;1.95;0
82823;PMS5003;72575;46.834;-71.234;2024-03-23T13:34:34;4.67;3.43;1.43
82823;PMS5003;72575;46.834;-71.234;2024-03-23T13:37:01;10;9.55;6.86
82823;PMS5003;72575;46.834;-71.234;2024-03-23T13:39:26;69;57.65;32.7
82823;PMS5003;72575;46.834;-71.234;2024-03-23T13:41:51;43.4;38.5;24.45
82823;PMS5003;72575;46.834;-71.234;2024-03-23T13:44:15;12.05;10.62;7.1
82823;PMS5003;72575;46.834;-71.234;2024-03-23T13:46:42;15.22;14.61;7.33
82823;PMS5003;72575;46.834;-71.234;2024-03-23T13:49:06;9.43;9.43;6.33
82823;PMS5003;72575;46.834;-71.234;2024-03-23T13:51:31;73.75;60.5;33.2
82823;PMS5003;72575;46.834;-71.234;2024-03-23T13:53:58;3.5;2.91;1
82823;PMS5003;72575;46.834;-71.234;2024-03-23T13:56:23;3.52;3.52;1
82823;PMS5003;72575;46.834;-71.234;2024-03-23T13:58:50;1.19;1.19;0.95
82823;PMS5003;72575;46.834;-71.234;2024-03-23T14:01:14;1.76;1.76;0.24
82823;PMS5003;72575;46.834;-71.234;2024-03-23T14:03:38;2.24;1.19;0.76
82823;PMS5003;72575;46.834;-71.234;2024-03-23T14:06:05;0.33;0;0
82823;PMS5003;72575;46.834;-71.234;2024-03-23T14:08:28;21.89;21.63;11.95
82823;PMS5003;72575;46.834;-71.234;2024-03-23T14:10:56;1.18;1.18;0.55
82823;PMS5003;72575;46.834;-71.234;2024-03-23T14:13:22;3;0.95;0
82823;PMS5003;72575;46.834;-71.234;2024-03-23T14:15:46;2.33;0.76;0
82823;PMS5003;72575;46.834;-71.234;2024-03-23T14:18:10;1.76;1;0.05
82823;PMS5003;72575;46.834;-71.234;2024-03-23T14:20:37;1.19;1;0.9
82823;PMS5003;72575;46.834;-71.234;2024-03-23T14:23:02;0.48;0.48;0.19
82823;PMS5003;72575;46.834;-71.234;2024-03-23T14:25:29;2.81;2.81;0
82823;PMS5003;72575;46.834;-71.234;2024-03-23T14:27:54;1.27;1;1
82823;PMS5003;72575;46.834;-71.234;2024-03-23T14:30:18;6.38;5.62;1
82823;PMS5003;72575;46.834;-71.234;2024-03-23T14:32:45;2.81;2.81;1
82823;PMS5003;72575;46.834;-71.234;2024-03-23T14:35:09;1;1;0.1
82823;PMS5003;72575;46.834;-71.234;2024-03-23T14:37:34;6.62;6.62;3.76
82823;PMS5003;72575;46.834;-71.234;2024-03-23T14:40:00;12.19;11.24;6.62
82823;PMS5003;72575;46.834;-71.234;2024-03-23T14:42:26;6.43;5.43;2.33
82823;PMS5003;72575;46.834;-71.234;2024-03-23T14:44:50;3.14;3.14;2.36
82823;PMS5003;72575;46.834;-71.234;2024-03-23T14:47:16;12.95;12.95;6.21
82823;PMS5003;72575;46.834;-71.234;2024-03-23T14:49:41;12.1;11.25;5.15
82823;PMS5003;72575;46.834;-71.234;2024-03-23T14:52:09;7.67;7;3.67
82823;PMS5003;72575;46.834;-71.234;2024-03-23T14:54:33;5.76;5.76;3.38
82823;PMS5003;72575;46.834;-71.234;2024-03-23T14:56:58;3.1;1.48;0.52
82823;PMS5003;72575;46.834;-71.234;2024-03-23T14:59:22;0.52;0.52;0.1
82823;PMS5003;72575;46.834;-71.234;2024-03-23T15:01:50;1.55;1.55;1
82823;PMS5003;72575;46.834;-71.234;2024-03-23T15:04:15;12.57;10.43;5.86
82823;PMS5003;72575;46.834;-71.234;2024-03-23T15:06:39;3.43;3.43;1.43
82823;PMS5003;72575;46.834;-71.234;2024-03-23T15:09:06;1.19;1.14;0.24
82823;PMS5003;72575;46.834;-71.234;2024-03-23T15:11:29;4;4;3.1
82823;PMS5003;72575;46.834;-71.234;2024-03-23T15:13:56;4.95;4.95;1.38